Wellsville, Colorado
Current Conditions -  °F | °C
As of 5:35 AM on Monday 20 Oct 2014 (Local Time) from KANK Reporting Station
Clear Clear  
Wind Chill: 40°   Ceiling: Unl
Heat Index: 40°   Visibility: 10mi
Dew Point: 34°   Wind: 0mph
Humidity: 79%   Direction: NA
Pressure: 30.38"   Gusts: NA
Location:  38.5561°N, 106.066°W
Report Text: KANK 201135Z AUTO 00000KT 10SM CLR 05/01 A3038 RMK AO1 T00450011
Loading
Personal Weather Stations






























Interactive Weather Map
Tropical Storm Tracking
New forecast layout! Learn more

10-Day Weather Forecast

Advertisements
Track Severe Weather on mobile